createdAt,value
2023-02-16T00:00:30.412Z,94891.88
2023-02-16T00:01:30.450Z,94873.09
2023-02-16T00:02:27.015Z,94876.53
2023-02-16T00:03:23.652Z,94891.41
2023-02-16T00:04:27.520Z,94889.81
2023-02-16T00:05:32.794Z,94854.53
2023-02-16T00:06:29.635Z,94879.72
2023-02-16T00:07:26.182Z,94892.38
2023-02-16T00:08:22.850Z,94884.25
2023-02-16T00:09:20.874Z,94889.63
2023-02-16T00:10:17.529Z,94888.53
2023-02-16T00:11:37.056Z,94886.94
2023-02-16T00:12:52.294Z,94880.97
2023-02-16T00:13:48.971Z,94884.28
2023-02-16T00:14:45.654Z,94843.16
2023-02-16T00:15:42.563Z,94887.63
2023-02-16T00:16:39.517Z,94887.38
2023-02-16T00:17:36.169Z,94891.38
2023-02-16T00:18:32.740Z,94887.22
2023-02-16T00:19:40.780Z,94890.66
2023-02-16T00:20:37.322Z,94853.19
2023-02-16T00:21:33.864Z,94869.97
2023-02-16T00:22:30.427Z,94862.28
2023-02-16T00:23:26.969Z,94888.47
2023-02-16T00:24:24.706Z,94890.19
2023-02-16T00:25:21.265Z,94876.47
2023-02-16T00:26:26.055Z,94881.19
2023-02-16T00:27:22.622Z,94892.91
2023-02-16T00:28:21.147Z,94884.53
2023-02-16T00:29:20.506Z,94886.59
2023-02-16T00:30:20.844Z,94877.81
2023-02-16T00:31:23.396Z,94890.69
2023-02-16T00:32:20.177Z,94891.81
2023-02-16T00:33:19.649Z,94890.09
2023-02-16T00:34:24.029Z,94888.69
2023-02-16T00:35:21.979Z,94883.69
2023-02-16T00:36:18.884Z,94890.53
2023-02-16T00:37:15.565Z,94850.59
2023-02-16T00:38:13.190Z,94891.66
2023-02-16T00:39:09.754Z,94870.31
2023-02-16T00:40:07.084Z,94883.69
2023-02-16T00:41:04.300Z,94880.56
2023-02-16T00:42:06.387Z,94885.97
2023-02-16T00:43:03.600Z,94886.06
2023-02-16T00:44:00.229Z,94875.28
2023-02-16T00:44:57.976Z,94876.13
2023-02-16T00:45:55.229Z,94868.69
2023-02-16T00:46:52.000Z,94803.69
2023-02-16T00:47:51.819Z,94805.47
2023-02-16T00:48:48.399Z,94856.44
2023-02-16T00:49:45.331Z,94874.84
2023-02-16T00:50:41.939Z,94809.22
2023-02-16T00:51:38.528Z,94883.16
2023-02-16T00:52:36.861Z,94871.28
2023-02-16T00:53:33.471Z,94843.72
2023-02-16T00:54:31.946Z,94877.19
2023-02-16T00:55:33.534Z,94877.84
2023-02-16T00:56:30.177Z,94862.59
2023-02-16T00:57:31.021Z,94806.97
2023-02-16T00:58:31.105Z,94884.88
2023-02-16T00:59:27.827Z,94873.25
2023-02-16T01:00:28.627Z,94853.28
2023-02-16T01:01:29.301Z,94873.41
2023-02-16T01:02:25.938Z,94872.59
2023-02-16T01:03:26.208Z,94854.66
2023-02-16T01:04:23.853Z,94871.66
2023-02-16T01:05:20.719Z,94864.94
2023-02-16T01:06:35.892Z,94875.34
2023-02-16T01:07:50.980Z,94864.56
2023-02-16T01:09:05.995Z,94868.06
2023-02-16T01:10:21.446Z,94875.28
2023-02-16T01:11:19.126Z,94866.94
2023-02-16T01:12:18.796Z,94868.53
2023-02-16T01:13:15.794Z,94871.34
2023-02-16T01:14:13.466Z,94842.84
2023-02-16T01:15:13.858Z,94873.59
2023-02-16T01:16:14.811Z,94869.19
2023-02-16T01:17:11.713Z,94872.38
2023-02-16T01:18:08.796Z,94823.59
2023-02-16T01:19:06.790Z,94871.06
2023-02-16T01:20:03.673Z,94869.19
2023-02-16T01:21:00.255Z,94846.22
2023-02-16T01:21:56.836Z,94874.88
2023-02-16T01:22:53.458Z,94867.84
2023-02-16T01:23:50.142Z,94871.91
2023-02-16T01:24:46.760Z,94848.25
2023-02-16T01:25:43.446Z,94864.72
2023-02-16T01:26:44.100Z,94861.69
2023-02-16T01:27:41.464Z,94858.72
2023-02-16T01:28:38.205Z,94831.41
2023-02-16T01:29:34.745Z,94828.06
2023-02-16T01:30:31.437Z,94813.81
2023-02-16T01:31:28.185Z,94856.56
2023-02-16T01:32:24.981Z,94847.50
2023-02-16T01:33:22.189Z,94851.50
2023-02-16T01:34:18.802Z,94850.09
2023-02-16T01:35:15.426Z,94845.81
2023-02-16T01:36:26.610Z,94810.66
2023-02-16T01:37:23.820Z,94837.19
2023-02-16T01:38:23.114Z,94848.16
2023-02-16T01:39:20.772Z,94847.22
2023-02-16T01:40:38.324Z,94847.44
2023-02-16T01:41:44.653Z,94848.84
2023-02-16T01:42:52.078Z,94780.00
2023-02-16T01:43:55.233Z,94836.25
2023-02-16T01:44:57.258Z,94843.56
2023-02-16T01:46:06.691Z,94835.41
2023-02-16T01:47:31.385Z,94841.19
2023-02-16T01:48:31.137Z,94836.16
2023-02-16T01:49:28.098Z,94834.56
2023-02-16T01:50:27.710Z,94830.34
2023-02-16T01:51:29.509Z,94831.53
2023-02-16T01:52:41.878Z,94840.91
2023-02-16T01:54:01.680Z,94815.81
2023-02-16T01:55:10.559Z,94841.41
2023-02-16T01:56:19.316Z,94845.03
2023-02-16T01:57:34.116Z,94844.31
2023-02-16T01:58:54.399Z,94844.56
2023-02-16T01:59:50.995Z,94834.50
2023-02-16T02:00:54.831Z,94833.47
2023-02-16T02:02:03.563Z,94829.50
2023-02-16T02:03:21.568Z,94828.06
2023-02-16T02:04:40.264Z,94835.94
2023-02-16T02:05:37.198Z,94833.97
2023-02-16T02:06:35.451Z,94828.66
2023-02-16T02:07:42.063Z,94826.78
2023-02-16T02:08:56.644Z,94825.44
2023-02-16T02:10:25.607Z,94828.13
2023-02-16T02:11:33.167Z,94825.03
2023-02-16T02:12:37.437Z,94824.38
2023-02-16T02:13:43.449Z,94800.28
2023-02-16T02:14:40.776Z,94831.63
2023-02-16T02:15:37.451Z,94823.06
2023-02-16T02:16:34.175Z,94833.50
2023-02-16T02:17:31.529Z,94828.78
2023-02-16T02:18:28.087Z,94731.22
2023-02-16T02:19:25.006Z,94811.94
2023-02-16T02:20:58.178Z,94818.63
2023-02-16T02:22:51.926Z,94822.75
2023-02-16T02:24:26.087Z,94825.78
2023-02-16T02:25:28.470Z,94829.44
2023-02-16T02:26:43.993Z,94825.81
2023-02-16T02:28:03.700Z,94825.75
2023-02-16T02:29:18.849Z,94831.19
2023-02-16T02:30:21.229Z,94827.38
2023-02-16T02:31:37.128Z,94827.22
2023-02-16T02:32:54.967Z,94810.41
2023-02-16T02:34:18.138Z,94821.91
2023-02-16T02:35:47.722Z,94784.22
2023-02-16T02:36:58.918Z,94826.97
2023-02-16T02:38:30.821Z,94826.75
2023-02-16T02:39:46.709Z,94828.34
2023-02-16T02:41:22.775Z,94823.81
2023-02-16T02:42:43.660Z,94822.56
2023-02-16T02:43:49.200Z,94806.31
2023-02-16T02:44:48.742Z,94824.38
2023-02-16T02:45:56.403Z,94827.69
2023-02-16T02:46:53.927Z,94829.81
2023-02-16T02:47:50.620Z,94824.13
2023-02-16T02:48:47.226Z,94828.31
2023-02-16T02:49:54.627Z,94829.81
2023-02-16T02:51:17.004Z,94829.81
2023-02-16T02:52:13.738Z,94824.28
2023-02-16T02:53:14.116Z,94826.97
2023-02-16T02:54:43.620Z,94831.63
2023-02-16T02:56:04.646Z,94827.03
2023-02-16T02:57:40.592Z,94798.16
2023-02-16T02:58:57.468Z,94834.72
2023-02-16T03:00:21.661Z,94833.84
2023-02-16T03:01:20.514Z,94834.63
2023-02-16T03:02:19.011Z,94828.44
2023-02-16T03:03:32.111Z,94780.81
2023-02-16T03:04:30.713Z,94834.31
2023-02-16T03:05:31.414Z,94789.03
2023-02-16T03:06:33.872Z,94800.78
2023-02-16T03:07:46.824Z,94834.19
2023-02-16T03:08:48.157Z,94826.03
2023-02-16T03:09:44.846Z,94837.28
2023-02-16T03:11:22.799Z,94784.22
2023-02-16T03:12:38.083Z,94836.47
2023-02-16T03:14:00.272Z,94841.94
2023-02-16T03:15:00.498Z,94810.25
2023-02-16T03:15:59.031Z,94836.56
2023-02-16T03:17:18.135Z,94835.69
2023-02-16T03:18:35.540Z,94845.84
2023-02-16T03:19:50.849Z,94837.56
2023-02-16T03:21:06.240Z,94843.69
2023-02-16T03:22:22.734Z,94837.97
2023-02-16T03:23:37.911Z,94779.25
2023-02-16T03:24:53.234Z,94843.28
2023-02-16T03:26:10.654Z,94840.34
2023-02-16T03:27:27.259Z,94820.88
2023-02-16T03:28:47.358Z,94834.25
2023-02-16T03:29:46.646Z,94835.25
2023-02-16T03:30:45.387Z,94833.53
2023-02-16T03:31:43.344Z,94827.34
2023-02-16T03:32:40.104Z,94777.13
2023-02-16T03:33:36.983Z,94743.31
2023-02-16T03:34:36.230Z,94834.25
2023-02-16T03:35:33.020Z,94828.22
2023-02-16T03:36:31.729Z,94831.50
2023-02-16T03:37:28.332Z,94829.81
2023-02-16T03:38:25.487Z,94835.38
2023-02-16T03:39:22.138Z,94838.06
2023-02-16T03:40:28.611Z,94806.09
2023-02-16T03:41:26.516Z,94823.16
2023-02-16T03:42:24.169Z,94828.13
2023-02-16T03:43:25.145Z,94825.09
2023-02-16T03:44:22.378Z,94832.38
2023-02-16T03:45:20.754Z,94824.69
2023-02-16T03:46:17.593Z,94769.25
2023-02-16T03:47:14.716Z,94835.06
2023-02-16T03:48:11.767Z,94829.47
2023-02-16T03:49:08.456Z,94800.47
2023-02-16T03:50:05.613Z,94829.13
2023-02-16T03:51:02.316Z,94827.47
2023-02-16T03:51:59.018Z,94827.59
2023-02-16T03:53:06.872Z,94781.25
2023-02-16T03:54:03.750Z,94791.09
2023-02-16T03:55:00.595Z,94826.56
2023-02-16T03:55:57.160Z,94810.19
2023-02-16T03:56:53.778Z,94826.19
2023-02-16T03:57:50.436Z,94820.25
2023-02-16T03:58:46.976Z,94829.53
2023-02-16T03:59:43.506Z,94821.34
2023-02-16T04:00:41.090Z,94821.47
2023-02-16T04:01:37.701Z,94812.53
2023-02-16T04:02:34.235Z,94799.19
2023-02-16T04:03:30.902Z,94815.50
2023-02-16T04:04:27.630Z,94787.88
2023-02-16T04:05:24.401Z,94779.78
2023-02-16T04:06:21.019Z,94817.13
2023-02-16T04:07:17.670Z,94780.28
2023-02-16T04:08:14.277Z,94799.34
2023-02-16T04:09:11.097Z,94821.63
2023-02-16T04:10:08.002Z,94806.44
2023-02-16T04:11:24.272Z,94813.44
2023-02-16T04:12:39.132Z,94786.38
2023-02-16T04:13:37.616Z,94759.22
2023-02-16T04:14:34.176Z,94760.25
2023-02-16T04:15:31.794Z,94808.47
2023-02-16T04:16:28.452Z,94801.75
2023-02-16T04:17:25.334Z,94800.31
2023-02-16T04:18:21.973Z,94794.94
2023-02-16T04:19:18.550Z,94805.25
2023-02-16T04:20:18.343Z,94805.38
2023-02-16T04:21:15.026Z,94798.00
2023-02-16T04:22:11.607Z,94796.59
2023-02-16T04:23:08.299Z,94805.59
2023-02-16T04:24:06.330Z,94811.59
2023-02-16T04:25:02.893Z,94802.69
2023-02-16T04:25:59.430Z,94751.09
2023-02-16T04:26:56.089Z,94800.13
2023-02-16T04:27:53.568Z,94800.28
2023-02-16T04:28:50.155Z,94809.72
2023-02-16T04:29:46.736Z,94778.00
2023-02-16T04:30:43.430Z,94816.31
2023-02-16T04:31:40.135Z,94784.03
2023-02-16T04:32:36.862Z,94783.22
2023-02-16T04:33:33.520Z,94791.19
2023-02-16T04:34:30.159Z,94789.84
2023-02-16T04:35:27.155Z,94810.66
2023-02-16T04:36:23.759Z,94813.34
2023-02-16T04:37:20.969Z,94806.00
2023-02-16T04:38:17.644Z,94813.50
2023-02-16T04:39:14.265Z,94722.22
2023-02-16T04:40:16.210Z,94812.38
2023-02-16T04:41:12.921Z,94801.75
2023-02-16T04:42:09.567Z,94714.66
2023-02-16T04:43:06.310Z,94804.06
2023-02-16T04:44:03.161Z,94811.28
2023-02-16T04:44:59.777Z,94809.81
2023-02-16T04:45:56.406Z,94780.19
2023-02-16T04:46:53.121Z,94803.91
2023-02-16T04:47:49.767Z,94808.84
2023-02-16T04:48:46.643Z,94803.41
2023-02-16T04:49:43.361Z,94763.69
2023-02-16T04:50:40.020Z,94706.41
2023-02-16T04:51:36.649Z,94804.44
2023-02-16T04:52:34.424Z,94808.41
2023-02-16T04:53:31.030Z,94809.47
2023-02-16T04:54:28.042Z,94796.47
2023-02-16T04:55:25.613Z,94813.09
2023-02-16T04:56:22.207Z,94811.22
2023-02-16T04:57:21.394Z,94757.09
2023-02-16T04:58:17.967Z,94802.00
2023-02-16T04:59:15.771Z,94810.28
2023-02-16T05:00:14.023Z,94817.69
2023-02-16T05:01:22.010Z,94820.16
2023-02-16T05:02:18.768Z,94821.25
2023-02-16T05:03:15.378Z,94791.47
2023-02-16T05:04:12.088Z,94777.13
2023-02-16T05:05:09.186Z,94825.25
2023-02-16T05:06:05.867Z,94829.81
2023-02-16T05:07:02.482Z,94825.44
2023-02-16T05:07:59.100Z,94777.25
2023-02-16T05:08:55.661Z,94828.16
2023-02-16T05:09:52.312Z,94828.66
2023-02-16T05:11:08.890Z,94830.78
2023-02-16T05:12:24.373Z,94790.97
2023-02-16T05:13:40.247Z,94836.88
2023-02-16T05:14:47.284Z,94833.28
2023-02-16T05:15:45.191Z,94834.75
2023-02-16T05:16:42.173Z,94836.75
2023-02-16T05:17:38.835Z,94835.19
2023-02-16T05:18:35.432Z,94837.72
2023-02-16T05:19:32.326Z,94793.19
2023-02-16T05:20:47.673Z,94839.56
2023-02-16T05:21:44.201Z,94805.72
2023-02-16T05:22:40.873Z,94838.53
2023-02-16T05:23:37.463Z,94837.34
2023-02-16T05:24:34.967Z,94850.25
2023-02-16T05:25:31.506Z,94850.22
2023-02-16T05:26:28.770Z,94843.84
2023-02-16T05:27:27.690Z,94845.22
2023-02-16T05:28:24.356Z,94845.00
2023-02-16T05:29:21.352Z,94832.63
2023-02-16T05:30:17.982Z,94848.50
2023-02-16T05:31:14.731Z,94847.22
2023-02-16T05:32:11.567Z,94852.31
2023-02-16T05:33:08.170Z,94844.94
2023-02-16T05:34:05.238Z,94846.13
2023-02-16T05:35:01.897Z,94828.00
2023-02-16T05:35:58.537Z,94842.75
2023-02-16T05:36:55.289Z,94835.38
2023-02-16T05:37:51.849Z,94852.94
2023-02-16T05:38:48.955Z,94849.19
2023-02-16T05:39:45.919Z,94844.94
2023-02-16T05:40:42.538Z,94853.69
2023-02-16T05:41:39.207Z,94833.88
2023-02-16T05:42:35.890Z,94856.41
2023-02-16T05:43:32.458Z,94850.19
2023-02-16T05:44:29.133Z,94853.03
2023-02-16T05:45:25.727Z,94839.66
2023-02-16T05:46:23.815Z,94851.38
2023-02-16T05:47:20.473Z,94791.19
2023-02-16T05:48:17.811Z,94773.06
2023-02-16T05:49:16.170Z,94850.78
2023-02-16T05:50:12.725Z,94828.13
2023-02-16T05:51:09.309Z,94851.88
2023-02-16T05:52:06.018Z,94750.75
2023-02-16T05:53:02.571Z,94853.88
2023-02-16T05:53:59.561Z,94853.66
2023-02-16T05:54:58.157Z,94853.50
2023-02-16T05:55:54.742Z,94835.63
2023-02-16T05:56:52.609Z,94856.78
2023-02-16T05:57:49.242Z,94780.38
2023-02-16T05:58:46.221Z,94852.00
2023-02-16T05:59:42.796Z,94851.03
2023-02-16T06:00:39.382Z,94861.38
2023-02-16T06:01:35.982Z,94849.91
2023-02-16T06:02:32.563Z,94859.91
2023-02-16T06:03:29.218Z,94863.25
2023-02-16T06:04:25.970Z,94862.69
2023-02-16T06:05:22.572Z,94859.44
2023-02-16T06:06:19.683Z,94857.16
2023-02-16T06:07:16.238Z,94862.31
2023-02-16T06:08:12.848Z,94860.94
2023-02-16T06:09:09.556Z,94848.34
2023-02-16T06:10:06.839Z,94868.97
2023-02-16T06:11:04.258Z,94871.56
2023-02-16T06:12:01.123Z,94845.66
2023-02-16T06:12:57.917Z,94866.59
2023-02-16T06:13:59.450Z,94864.53
2023-02-16T06:14:56.087Z,94856.88
2023-02-16T06:15:55.528Z,94866.22
2023-02-16T06:16:52.191Z,94830.75
2023-02-16T06:17:48.808Z,94863.66
2023-02-16T06:18:45.417Z,94863.53
2023-02-16T06:19:42.035Z,94849.91
2023-02-16T06:20:39.504Z,94885.81
2023-02-16T06:21:36.798Z,94873.78
2023-02-16T06:22:33.587Z,94875.53
2023-02-16T06:23:30.190Z,94867.53
2023-02-16T06:24:27.146Z,94874.03
2023-02-16T06:25:23.755Z,94877.78
2023-02-16T06:26:20.734Z,94820.19
2023-02-16T06:27:17.347Z,94816.06
2023-02-16T06:28:14.000Z,94841.84
2023-02-16T06:29:10.862Z,94862.06
2023-02-16T06:30:08.789Z,94876.38
2023-02-16T06:31:05.772Z,94884.28
2023-02-16T06:32:02.712Z,94880.69
2023-02-16T06:32:59.509Z,94862.53
2023-02-16T06:33:57.127Z,94807.66
2023-02-16T06:34:53.767Z,94823.53
2023-02-16T06:35:50.374Z,94888.13
2023-02-16T06:36:47.223Z,94883.06
2023-02-16T06:37:44.090Z,94884.47
2023-02-16T06:38:40.850Z,94894.31
2023-02-16T06:39:37.512Z,94897.72
2023-02-16T06:40:34.260Z,94886.31
2023-02-16T06:41:38.021Z,94889.78
2023-02-16T06:42:34.633Z,94884.44
2023-02-16T06:43:31.539Z,94883.16
2023-02-16T06:44:28.613Z,94751.97
2023-02-16T06:45:25.274Z,94891.66
2023-02-16T06:46:22.045Z,94839.53
2023-02-16T06:47:18.617Z,94885.84
2023-02-16T06:48:15.331Z,94887.78
2023-02-16T06:49:14.344Z,94827.69
2023-02-16T06:50:13.714Z,94889.13
2023-02-16T06:51:10.349Z,94885.44
2023-02-16T06:52:06.991Z,94887.84
2023-02-16T06:53:03.903Z,94844.50
2023-02-16T06:54:00.642Z,94868.56
2023-02-16T06:54:57.293Z,94832.03
2023-02-16T06:55:53.991Z,94894.53
2023-02-16T06:56:50.564Z,94887.25
2023-02-16T06:57:47.150Z,94864.72
2023-02-16T06:58:43.751Z,94894.03
2023-02-16T06:59:40.475Z,94888.63
2023-02-16T07:00:37.257Z,94877.81
2023-02-16T07:01:34.210Z,94864.19
2023-02-16T07:02:30.816Z,94891.16
2023-02-16T07:03:27.488Z,94887.03
2023-02-16T07:04:24.094Z,94852.47
2023-02-16T07:05:20.727Z,94878.59
2023-02-16T07:06:17.549Z,94885.59
2023-02-16T07:07:14.434Z,94877.03
2023-02-16T07:08:11.193Z,94884.94
2023-02-16T07:09:07.791Z,94883.78
2023-02-16T07:10:04.593Z,94885.94
2023-02-16T07:11:01.235Z,94886.28
2023-02-16T07:11:58.399Z,94885.06
2023-02-16T07:12:55.082Z,94875.06
2023-02-16T07:13:51.879Z,94840.84
2023-02-16T07:14:48.489Z,94877.03
2023-02-16T07:15:45.164Z,94869.84
2023-02-16T07:16:42.056Z,94868.50
2023-02-16T07:17:38.725Z,94867.44
2023-02-16T07:18:35.669Z,94758.38
2023-02-16T07:19:33.762Z,94868.84
2023-02-16T07:20:30.396Z,94868.56
2023-02-16T07:21:27.190Z,94840.25
2023-02-16T07:22:23.852Z,94864.56
2023-02-16T07:23:21.244Z,94869.81
2023-02-16T07:24:18.193Z,94874.06
2023-02-16T07:25:14.815Z,94872.47
2023-02-16T07:26:11.681Z,94831.72
2023-02-16T07:27:08.728Z,94854.88
2023-02-16T07:28:05.335Z,94868.53
2023-02-16T07:29:01.982Z,94875.13
2023-02-16T07:29:58.633Z,94860.94
2023-02-16T07:30:55.455Z,94827.69
2023-02-16T07:31:52.482Z,94845.84
2023-02-16T07:32:49.470Z,94861.44
2023-02-16T07:33:46.091Z,94862.75
2023-02-16T07:34:42.759Z,94828.78
2023-02-16T07:35:39.562Z,94857.75
2023-02-16T07:36:36.146Z,94865.13
2023-02-16T07:37:32.737Z,94773.25
2023-02-16T07:38:30.808Z,94860.31
2023-02-16T07:39:29.440Z,94869.50
2023-02-16T07:40:26.737Z,94865.59
2023-02-16T07:41:23.486Z,94867.19
2023-02-16T07:42:21.313Z,94844.47
2023-02-16T07:43:18.513Z,94867.19
2023-02-16T07:44:15.174Z,94873.47
2023-02-16T07:45:11.738Z,94870.31
2023-02-16T07:46:08.584Z,94860.38
2023-02-16T07:47:05.244Z,94820.41
2023-02-16T07:48:02.413Z,94804.34
2023-02-16T07:48:59.219Z,94874.06
2023-02-16T07:49:55.820Z,94875.34
2023-02-16T07:50:52.728Z,94808.22
2023-02-16T07:51:49.307Z,94885.59
2023-02-16T07:52:45.978Z,94872.69
2023-02-16T07:53:42.585Z,94876.13
2023-02-16T07:54:39.428Z,94816.38
2023-02-16T07:55:43.508Z,94877.13
2023-02-16T07:56:40.137Z,94847.16
2023-02-16T07:57:38.715Z,94874.06
2023-02-16T07:58:36.795Z,94866.44
2023-02-16T07:59:33.490Z,94855.38
2023-02-16T08:00:30.143Z,94866.97
2023-02-16T08:01:26.864Z,94849.31
2023-02-16T08:02:23.960Z,94867.22
2023-02-16T08:03:20.704Z,94870.91
2023-02-16T08:04:17.303Z,94873.78
2023-02-16T08:05:14.058Z,94839.56
2023-02-16T08:06:10.892Z,94862.97
2023-02-16T08:07:07.517Z,94865.91
2023-02-16T08:08:04.995Z,94873.81
2023-02-16T08:09:01.671Z,94859.84
2023-02-16T08:09:59.046Z,94867.75
2023-02-16T08:10:55.778Z,94885.63
2023-02-16T08:11:52.302Z,94878.81
2023-02-16T08:12:49.919Z,94884.06
2023-02-16T08:13:47.300Z,94820.34
2023-02-16T08:14:44.825Z,94881.44
2023-02-16T08:15:44.364Z,94884.84
2023-02-16T08:16:40.936Z,94875.13
2023-02-16T08:17:37.822Z,94883.28
2023-02-16T08:18:35.447Z,94883.28
2023-02-16T08:19:32.140Z,94883.53
2023-02-16T08:20:46.059Z,94890.13
2023-02-16T08:21:49.374Z,94894.88
2023-02-16T08:22:46.034Z,94888.53
2023-02-16T08:24:07.679Z,94891.41
2023-02-16T08:25:07.009Z,94803.78
2023-02-16T08:26:11.545Z,94839.31
2023-02-16T08:27:08.222Z,94897.66
2023-02-16T08:28:06.987Z,94899.81
2023-02-16T08:29:05.527Z,94783.78
2023-02-16T08:30:02.264Z,94895.78
2023-02-16T08:31:04.150Z,94893.00
2023-02-16T08:32:01.468Z,94839.81
2023-02-16T08:33:01.108Z,94895.13
2023-02-16T08:34:00.392Z,94891.41
2023-02-16T08:34:57.441Z,94891.44
2023-02-16T08:35:54.054Z,94890.03
2023-02-16T08:36:56.821Z,94857.91
2023-02-16T08:37:53.514Z,94898.97
2023-02-16T08:38:52.204Z,94889.78
2023-02-16T08:39:49.392Z,94870.25
2023-02-16T08:40:50.049Z,94850.63
2023-02-16T08:41:48.733Z,94897.13
2023-02-16T08:42:45.454Z,94895.38
2023-02-16T08:43:42.043Z,94898.66
2023-02-16T08:44:39.530Z,94863.41
2023-02-16T08:45:36.318Z,94897.41
2023-02-16T08:46:34.384Z,94889.75
2023-02-16T08:47:31.420Z,94897.53
2023-02-16T08:48:28.972Z,94880.22
2023-02-16T08:49:26.062Z,94888.88
2023-02-16T08:50:22.672Z,94894.13
2023-02-16T08:51:20.411Z,94886.78
2023-02-16T08:52:16.996Z,94874.97
2023-02-16T08:53:15.461Z,94892.28
2023-02-16T08:54:16.932Z,94889.38
2023-02-16T08:55:14.053Z,94885.19
2023-02-16T08:56:12.719Z,94880.59
2023-02-16T08:57:09.461Z,94888.81
2023-02-16T08:58:06.046Z,94893.91
2023-02-16T08:59:02.810Z,94889.16
2023-02-16T09:00:17.813Z,94887.78
2023-02-16T09:01:15.361Z,94848.91
2023-02-16T09:02:12.430Z,94890.28
2023-02-16T09:03:09.017Z,94892.78
2023-02-16T09:04:05.828Z,94896.06
2023-02-16T09:05:02.542Z,94884.00
2023-02-16T09:06:02.830Z,94810.78
2023-02-16T09:06:59.939Z,94885.59
2023-02-16T09:07:57.630Z,94881.28
2023-02-16T09:08:57.009Z,94827.50
2023-02-16T09:09:53.602Z,94882.50
2023-02-16T09:10:50.369Z,94881.22
2023-02-16T09:11:47.281Z,94881.59
2023-02-16T09:12:43.912Z,94888.34
2023-02-16T09:13:41.190Z,94889.16
2023-02-16T09:14:37.810Z,94880.25
2023-02-16T09:15:34.870Z,94883.72
2023-02-16T09:16:35.449Z,94888.41
2023-02-16T09:17:32.097Z,94888.28
2023-02-16T09:18:28.735Z,94863.84
2023-02-16T09:19:26.039Z,94881.31
2023-02-16T09:20:23.774Z,94880.34
2023-02-16T09:21:25.474Z,94879.91
2023-02-16T09:22:22.527Z,94875.25
2023-02-16T09:23:20.596Z,94875.56
2023-02-16T09:24:17.293Z,94827.19
2023-02-16T09:25:15.673Z,94837.41
2023-02-16T09:26:12.326Z,94806.19
2023-02-16T09:27:09.380Z,94830.59
2023-02-16T09:28:06.806Z,94871.81
2023-02-16T09:29:04.579Z,94879.03
2023-02-16T09:30:01.265Z,94873.13
2023-02-16T09:30:58.946Z,94870.34
2023-02-16T09:31:55.799Z,94870.53
2023-02-16T09:32:52.520Z,94862.16
2023-02-16T09:33:49.210Z,94870.53
2023-02-16T09:34:47.036Z,94865.16
2023-02-16T09:35:43.641Z,94869.31
2023-02-16T09:36:40.349Z,94875.66
2023-02-16T09:37:36.939Z,94860.34
2023-02-16T09:38:34.126Z,94835.88
2023-02-16T09:39:31.037Z,94822.56
2023-02-16T09:40:27.601Z,94831.06
2023-02-16T09:41:39.280Z,94864.06
2023-02-16T09:42:55.016Z,94820.69
2023-02-16T09:44:21.891Z,94855.06
2023-02-16T09:45:20.562Z,94856.59
2023-02-16T09:46:22.543Z,94836.66
2023-02-16T09:47:31.441Z,94855.41
2023-02-16T09:48:37.589Z,94781.06
2023-02-16T09:49:38.937Z,94808.34
2023-02-16T09:50:53.061Z,94865.94
2023-02-16T09:52:00.670Z,94850.59
2023-02-16T09:53:10.042Z,94851.00
2023-02-16T09:54:35.937Z,94849.88
2023-02-16T09:55:46.568Z,94843.34
2023-02-16T09:57:08.367Z,94843.63
2023-02-16T09:58:19.062Z,94808.91
2023-02-16T09:59:36.552Z,94845.94
2023-02-16T10:00:33.223Z,94848.88
2023-02-16T10:01:47.827Z,94849.53
2023-02-16T10:02:57.892Z,94801.19
2023-02-16T10:04:23.841Z,94784.50
2023-02-16T10:05:31.097Z,94798.88
2023-02-16T10:06:58.470Z,94844.13
2023-02-16T10:07:57.482Z,94838.75
2023-02-16T10:09:09.646Z,94818.47
2023-02-16T10:10:08.086Z,94836.09
2023-02-16T10:11:30.423Z,94839.22
2023-02-16T10:12:37.374Z,94838.84
2023-02-16T10:13:44.073Z,94834.44
2023-02-16T10:14:47.204Z,94829.31
2023-02-16T10:15:45.482Z,94831.75
2023-02-16T10:16:50.374Z,94828.88
2023-02-16T10:17:52.225Z,94823.91
2023-02-16T10:18:52.008Z,94825.78
2023-02-16T10:19:57.447Z,94794.88
2023-02-16T10:20:56.676Z,94825.22
2023-02-16T10:22:00.010Z,94822.25
2023-02-16T10:23:25.800Z,94793.94
2023-02-16T10:24:24.844Z,94749.41
2023-02-16T10:25:28.704Z,94826.81
2023-02-16T10:26:39.780Z,94826.59
2023-02-16T10:27:44.041Z,94799.09
2023-02-16T10:28:57.302Z,94821.13
2023-02-16T10:29:55.059Z,94752.38
2023-02-16T10:31:00.957Z,94812.38
2023-02-16T10:32:04.910Z,94826.59
2023-02-16T10:33:14.351Z,94820.81
2023-02-16T10:34:29.039Z,94815.63
2023-02-16T10:35:50.710Z,94813.00
2023-02-16T10:37:06.118Z,94822.50
2023-02-16T10:38:06.074Z,94806.25
2023-02-16T10:39:27.001Z,94822.00
2023-02-16T10:40:33.100Z,94790.50
2023-02-16T10:41:37.496Z,94817.84
2023-02-16T10:42:56.476Z,94809.47
2023-02-16T10:44:05.231Z,94811.84
2023-02-16T10:45:14.407Z,94767.75
2023-02-16T10:46:17.342Z,94803.78
2023-02-16T10:47:28.052Z,94786.47
2023-02-16T10:48:24.810Z,94756.69
2023-02-16T10:49:21.946Z,94813.00
2023-02-16T10:50:23.812Z,94773.00
2023-02-16T10:51:25.512Z,94806.38
2023-02-16T10:52:23.350Z,94774.75
2023-02-16T10:53:29.501Z,94775.59
2023-02-16T10:54:28.538Z,94802.91
2023-02-16T10:55:25.933Z,94797.88
2023-02-16T10:56:46.885Z,94800.69
2023-02-16T10:57:43.978Z,94798.13
2023-02-16T10:58:42.444Z,94798.97
2023-02-16T10:59:48.288Z,94800.59
2023-02-16T11:01:06.009Z,94795.13
2023-02-16T11:02:17.082Z,94791.00
2023-02-16T11:03:15.589Z,94794.63
2023-02-16T11:04:32.254Z,94785.31
2023-02-16T11:05:36.229Z,94781.72
2023-02-16T11:06:36.413Z,94782.28
2023-02-16T11:07:33.970Z,94769.13
2023-02-16T11:08:48.095Z,94782.97
2023-02-16T11:09:51.271Z,94779.56
2023-02-16T11:10:51.769Z,94783.41
2023-02-16T11:11:48.689Z,94781.78
2023-02-16T11:12:45.317Z,94757.25
2023-02-16T11:13:42.044Z,94776.34
2023-02-16T11:14:38.678Z,94750.25
2023-02-16T11:15:39.456Z,94774.63
2023-02-16T11:16:36.734Z,94776.47
2023-02-16T11:17:53.283Z,94782.28
2023-02-16T11:19:03.107Z,94778.19
2023-02-16T11:20:05.740Z,94772.50
2023-02-16T11:21:04.159Z,94746.81
2023-02-16T11:22:02.378Z,94778.34
2023-02-16T11:23:23.497Z,94773.41
2023-02-16T11:24:34.918Z,94770.84
2023-02-16T11:25:31.565Z,94767.44
2023-02-16T11:26:28.993Z,94772.75
2023-02-16T11:27:26.068Z,94762.59
2023-02-16T11:28:47.822Z,94763.47
2023-02-16T11:29:44.682Z,94767.28
2023-02-16T11:30:43.396Z,94760.00
2023-02-16T11:31:40.903Z,94737.16
2023-02-16T11:32:37.692Z,94766.66
2023-02-16T11:33:34.910Z,94714.28
2023-02-16T11:34:51.774Z,94765.84
2023-02-16T11:35:48.831Z,94757.22
2023-02-16T11:36:47.240Z,94755.50
2023-02-16T11:37:44.336Z,94758.22
2023-02-16T11:38:41.277Z,94755.97
2023-02-16T11:39:40.736Z,94752.78
2023-02-16T11:40:37.568Z,94740.31
2023-02-16T11:41:35.571Z,94693.66
2023-02-16T11:42:47.526Z,94760.13
2023-02-16T11:43:44.154Z,94750.41
2023-02-16T11:44:51.173Z,94741.88
2023-02-16T11:46:00.741Z,94686.47
2023-02-16T11:46:59.700Z,94708.50
2023-02-16T11:48:25.173Z,94751.25
2023-02-16T11:49:35.546Z,94751.72
2023-02-16T11:50:38.703Z,94744.38
2023-02-16T11:51:36.465Z,94747.50
2023-02-16T11:52:33.181Z,94741.00
2023-02-16T11:53:33.135Z,94741.56
2023-02-16T11:54:29.724Z,94743.44
2023-02-16T11:55:33.501Z,94739.38
2023-02-16T11:56:33.030Z,94735.78
2023-02-16T11:57:35.941Z,94733.56
2023-02-16T11:58:32.588Z,94735.28